createdAt,value
2017-05-27T00:00:20.114Z,18.47
2017-05-27T00:02:46.587Z,18.57
2017-05-27T00:05:12.918Z,18.74
2017-05-27T00:07:39.330Z,18.62
2017-05-27T00:10:05.684Z,18.60
2017-05-27T00:12:32.017Z,18.94
2017-05-27T00:14:58.362Z,18.51
2017-05-27T00:17:24.793Z,18.57
2017-05-27T00:19:51.124Z,18.35
2017-05-27T00:22:17.500Z,18.44
2017-05-27T00:24:43.816Z,17.81
2017-05-27T00:27:10.174Z,18.10
2017-05-27T00:29:36.530Z,18.04
2017-05-27T00:32:02.875Z,18.48
2017-05-27T00:34:29.249Z,19.36
2017-05-27T00:36:55.571Z,18.97
2017-05-27T00:39:21.949Z,19.05
2017-05-27T00:41:48.283Z,18.40
2017-05-27T00:44:14.646Z,18.36
2017-05-27T00:46:41.051Z,17.48
2017-05-27T00:49:07.413Z,17.24
2017-05-27T00:51:33.751Z,17.51
2017-05-27T00:54:00.082Z,17.64
2017-05-27T00:56:26.416Z,18.21
2017-05-27T00:58:52.775Z,17.46
2017-05-27T01:01:19.409Z,17.48
2017-05-27T01:03:45.808Z,16.93
2017-05-27T01:06:12.161Z,17.01
2017-05-27T01:08:38.490Z,16.67
2017-05-27T01:11:04.846Z,17.12
2017-05-27T01:13:31.243Z,18.38
2017-05-27T01:15:57.585Z,17.77
2017-05-27T01:18:23.940Z,17.16
2017-05-27T01:20:50.730Z,17.37
2017-05-27T01:23:17.099Z,17.73
2017-05-27T01:25:43.430Z,17.50
2017-05-27T01:28:09.823Z,17.21
2017-05-27T01:30:36.190Z,17.30
2017-05-27T01:33:02.555Z,17.48
2017-05-27T01:35:28.953Z,17.17
2017-05-27T01:37:55.303Z,18.32
2017-05-27T01:40:21.687Z,18.10
2017-05-27T01:42:48.102Z,16.64
2017-05-27T01:45:14.517Z,17.26
2017-05-27T01:47:40.961Z,16.65
2017-05-27T01:50:07.287Z,16.04
2017-05-27T01:52:33.629Z,16.53
2017-05-27T01:54:59.981Z,16.13
2017-05-27T01:57:26.299Z,15.94
2017-05-27T01:59:52.623Z,16.44
2017-05-27T02:02:18.990Z,16.52
2017-05-27T02:04:45.311Z,15.89
2017-05-27T02:07:11.686Z,16.21
2017-05-27T02:09:38.023Z,16.20
2017-05-27T02:12:04.338Z,15.38
2017-05-27T02:14:30.672Z,15.50
2017-05-27T02:16:57.005Z,15.55
2017-05-27T02:19:23.357Z,15.11
2017-05-27T02:21:49.675Z,15.22
2017-05-27T02:24:16.021Z,15.30
2017-05-27T02:26:42.358Z,15.72
2017-05-27T02:29:08.713Z,15.42
2017-05-27T02:31:35.058Z,15.59
2017-05-27T02:34:01.386Z,15.95
2017-05-27T02:36:27.706Z,15.73
2017-05-27T02:38:54.036Z,15.67
2017-05-27T02:41:20.382Z,15.62
2017-05-27T02:43:46.730Z,14.81
2017-05-27T02:46:13.069Z,14.88
2017-05-27T02:48:39.409Z,15.44
2017-05-27T02:51:05.729Z,15.22
2017-05-27T02:53:32.056Z,15.63
2017-05-27T02:55:58.387Z,15.85
2017-05-27T02:58:24.733Z,15.46
2017-05-27T03:00:51.082Z,15.03
2017-05-27T03:03:17.478Z,15.48
2017-05-27T03:05:43.834Z,15.16
2017-05-27T03:08:10.198Z,15.14
2017-05-27T03:10:36.528Z,15.41
2017-05-27T03:13:02.873Z,15.92
2017-05-27T03:15:29.191Z,17.18
2017-05-27T03:17:55.592Z,17.07
2017-05-27T03:20:21.926Z,16.88
2017-05-27T03:22:48.263Z,16.23
2017-05-27T03:25:14.624Z,16.05
2017-05-27T03:27:40.978Z,15.85
2017-05-27T03:30:07.303Z,16.00
2017-05-27T03:32:33.647Z,16.27
2017-05-27T03:34:59.991Z,15.72
2017-05-27T03:37:26.317Z,15.72
2017-05-27T03:39:52.647Z,15.43
2017-05-27T03:42:18.987Z,15.25
2017-05-27T03:44:45.335Z,15.06
2017-05-27T03:47:11.667Z,15.00
2017-05-27T03:49:38.034Z,15.61
2017-05-27T03:52:04.445Z,15.93
2017-05-27T03:54:30.777Z,15.40
2017-05-27T03:56:57.119Z,15.37
2017-05-27T03:59:23.454Z,15.48
2017-05-27T04:01:49.807Z,15.44
2017-05-27T04:04:16.256Z,15.40
2017-05-27T04:06:42.621Z,14.52
2017-05-27T04:09:08.940Z,14.91
2017-05-27T04:11:35.317Z,15.35
2017-05-27T04:14:01.749Z,15.01
2017-05-27T04:16:28.075Z,16.21
2017-05-27T04:18:54.422Z,15.67
2017-05-27T04:21:20.750Z,15.01
2017-05-27T04:23:47.094Z,15.05
2017-05-27T04:26:13.453Z,15.68
2017-05-27T04:28:39.804Z,16.30
2017-05-27T04:31:06.137Z,15.49
2017-05-27T04:33:32.538Z,15.74
2017-05-27T04:35:58.871Z,17.27
2017-05-27T04:38:25.196Z,15.75
2017-05-27T04:40:51.532Z,16.20
2017-05-27T04:43:17.892Z,16.77
2017-05-27T04:45:44.228Z,17.04
2017-05-27T04:48:11.387Z,17.19
2017-05-27T04:50:37.753Z,16.67
2017-05-27T04:53:04.098Z,16.83
2017-05-27T04:55:30.418Z,16.98
2017-05-27T04:57:56.774Z,16.19
2017-05-27T05:00:23.151Z,16.66
2017-05-27T05:02:49.471Z,16.22
2017-05-27T05:05:15.799Z,16.21
2017-05-27T05:07:42.132Z,16.66
2017-05-27T05:10:08.544Z,16.51
2017-05-27T05:12:34.871Z,16.41
2017-05-27T05:15:01.200Z,16.63
2017-05-27T05:17:27.529Z,16.73
2017-05-27T05:19:53.877Z,16.86
2017-05-27T05:22:20.244Z,17.01
2017-05-27T05:24:46.614Z,16.88
2017-05-27T05:27:12.953Z,17.22
2017-05-27T05:29:39.300Z,17.41
2017-05-27T05:32:05.694Z,17.28
2017-05-27T05:34:32.042Z,17.52
2017-05-27T05:36:58.377Z,17.70
2017-05-27T05:39:24.729Z,17.61
2017-05-27T05:41:51.074Z,17.69
2017-05-27T05:44:17.465Z,17.69
2017-05-27T05:46:43.799Z,17.77
2017-05-27T05:49:10.238Z,17.98
2017-05-27T05:51:36.599Z,18.08
2017-05-27T05:54:02.935Z,18.09
2017-05-27T05:56:29.285Z,18.11
2017-05-27T05:58:55.646Z,18.29
2017-05-27T06:01:21.975Z,18.24
2017-05-27T06:03:48.325Z,18.32
2017-05-27T06:06:14.678Z,18.47
2017-05-27T06:08:40.999Z,18.82
2017-05-27T06:11:07.354Z,18.72
2017-05-27T06:13:33.696Z,18.72
2017-05-27T06:16:00.111Z,18.73
2017-05-27T06:18:26.980Z,18.96
2017-05-27T06:20:53.357Z,18.90
2017-05-27T06:23:19.692Z,18.95
2017-05-27T06:25:46.067Z,18.81
2017-05-27T06:28:12.427Z,19.05
2017-05-27T06:30:38.772Z,18.95
2017-05-27T06:33:05.117Z,18.96
2017-05-27T06:35:31.451Z,19.58
2017-05-27T06:37:57.799Z,19.39
2017-05-27T06:40:24.130Z,19.35
2017-05-27T06:42:50.506Z,19.52
2017-05-27T06:45:16.832Z,19.51
2017-05-27T06:47:43.185Z,19.76
2017-05-27T06:50:09.507Z,19.85
2017-05-27T06:52:35.882Z,19.96
2017-05-27T06:55:02.249Z,20.17
2017-05-27T06:57:28.587Z,20.30
2017-05-27T06:59:54.947Z,20.22
2017-05-27T07:02:21.314Z,20.28
2017-05-27T07:04:47.693Z,20.60
2017-05-27T07:07:14.043Z,20.87
2017-05-27T07:09:40.389Z,20.88
2017-05-27T07:12:06.744Z,21.08
2017-05-27T07:14:33.092Z,21.13
2017-05-27T07:16:59.435Z,21.25
2017-05-27T07:19:25.786Z,21.25
2017-05-27T07:21:52.148Z,21.42
2017-05-27T07:24:18.474Z,21.50
2017-05-27T07:26:44.794Z,21.80
2017-05-27T07:29:11.151Z,21.84
2017-05-27T07:31:37.474Z,21.99
2017-05-27T07:34:03.807Z,21.96
2017-05-27T07:36:30.139Z,22.28
2017-05-27T07:38:56.483Z,22.51
2017-05-27T07:41:22.818Z,22.72
2017-05-27T07:43:49.152Z,22.78
2017-05-27T07:46:15.479Z,23.01
2017-05-27T07:48:41.829Z,22.95
2017-05-27T07:51:08.214Z,23.18
2017-05-27T07:53:34.543Z,23.33
2017-05-27T07:56:00.902Z,23.31
2017-05-27T07:58:27.224Z,23.75
2017-05-27T08:00:53.577Z,23.65
2017-05-27T08:03:19.961Z,24.08
2017-05-27T08:05:46.298Z,24.02
2017-05-27T08:08:12.776Z,23.91
2017-05-27T08:10:39.166Z,24.02
2017-05-27T08:13:05.523Z,24.05
2017-05-27T08:15:31.897Z,24.70
2017-05-27T08:17:58.309Z,24.96
2017-05-27T08:20:24.657Z,25.37
2017-05-27T08:22:50.974Z,25.10
2017-05-27T08:25:17.293Z,25.41
2017-05-27T08:27:43.641Z,25.85
2017-05-27T08:30:09.967Z,25.63
2017-05-27T08:32:42.424Z,25.96
2017-05-27T08:35:08.802Z,26.34
2017-05-27T08:37:35.136Z,26.08
2017-05-27T08:40:01.453Z,26.64
2017-05-27T08:42:27.798Z,26.73
2017-05-27T08:44:54.224Z,26.85
2017-05-27T08:47:20.564Z,27.15
2017-05-27T08:49:46.926Z,27.28
2017-05-27T08:52:13.283Z,26.89
2017-05-27T08:54:39.617Z,27.01
2017-05-27T08:57:05.951Z,26.95
2017-05-27T08:59:32.294Z,27.10
2017-05-27T09:01:58.643Z,27.29
2017-05-27T09:04:24.976Z,28.14
2017-05-27T09:06:51.310Z,27.98
2017-05-27T09:09:17.661Z,28.49
2017-05-27T09:11:43.991Z,28.52
2017-05-27T09:14:10.363Z,28.58
2017-05-27T09:16:36.771Z,28.67
2017-05-27T09:19:03.250Z,28.75
2017-05-27T09:21:29.599Z,28.68
2017-05-27T09:23:55.962Z,29.16
2017-05-27T09:26:22.373Z,29.11
2017-05-27T09:28:48.839Z,29.92
2017-05-27T09:31:15.171Z,29.59
2017-05-27T09:33:41.515Z,29.11
2017-05-27T09:36:07.874Z,29.57
2017-05-27T09:38:34.215Z,29.60
2017-05-27T09:41:00.567Z,29.97
2017-05-27T09:43:26.987Z,29.69
2017-05-27T09:45:53.332Z,29.71
2017-05-27T09:48:19.686Z,30.64
2017-05-27T09:50:46.056Z,30.61
2017-05-27T09:53:12.533Z,30.64
2017-05-27T09:55:38.925Z,31.00
2017-05-27T09:58:05.280Z,30.40
2017-05-27T10:00:31.614Z,30.16
2017-05-27T10:02:57.953Z,31.00
2017-05-27T10:05:24.351Z,30.96
2017-05-27T10:07:50.805Z,31.31
2017-05-27T10:10:17.126Z,31.54
2017-05-27T10:12:43.589Z,31.82
2017-05-27T10:15:10.026Z,31.53
2017-05-27T10:17:36.542Z,31.78
2017-05-27T10:20:02.989Z,31.33
2017-05-27T10:22:29.362Z,31.74
2017-05-27T10:24:55.785Z,31.04
2017-05-27T10:27:22.119Z,31.48
2017-05-27T10:29:50.604Z,30.74
2017-05-27T10:32:21.127Z,31.53
2017-05-27T10:34:47.471Z,31.90
2017-05-27T10:37:13.888Z,32.28
2017-05-27T10:39:40.238Z,31.66
2017-05-27T10:42:06.599Z,31.11
2017-05-27T10:44:33.600Z,32.06
2017-05-27T10:47:00.051Z,32.44
2017-05-27T10:49:26.593Z,32.78
2017-05-27T10:51:52.964Z,32.89
2017-05-27T10:54:19.331Z,33.51
2017-05-27T10:56:45.691Z,32.97
2017-05-27T10:59:12.159Z,32.57
2017-05-27T11:01:38.506Z,33.17
2017-05-27T11:04:04.847Z,33.78
2017-05-27T11:06:31.179Z,33.60
2017-05-27T11:08:57.569Z,33.49
2017-05-27T11:11:23.939Z,33.48
2017-05-27T11:13:50.267Z,33.83
2017-05-27T11:16:16.647Z,32.45
2017-05-27T11:18:43.010Z,33.60
2017-05-27T11:21:09.427Z,34.53
2017-05-27T11:23:35.773Z,34.02
2017-05-27T11:26:02.645Z,33.87
2017-05-27T11:28:28.998Z,33.73
2017-05-27T11:30:55.315Z,33.82
2017-05-27T11:33:21.655Z,34.32
2017-05-27T11:35:48.021Z,33.97
2017-05-27T11:38:14.383Z,34.25
2017-05-27T11:40:40.812Z,33.77
2017-05-27T11:43:07.215Z,33.04
2017-05-27T11:45:33.873Z,34.20
2017-05-27T11:48:00.544Z,34.36
2017-05-27T11:50:28.354Z,34.64
2017-05-27T11:52:56.358Z,34.77
2017-05-27T11:55:23.773Z,34.50
2017-05-27T11:57:50.673Z,34.56
2017-05-27T12:00:17.319Z,34.74
2017-05-27T12:02:44.663Z,35.09
2017-05-27T12:05:11.611Z,35.15
2017-05-27T12:07:38.707Z,35.61
2017-05-27T12:10:05.174Z,35.11
2017-05-27T12:12:32.046Z,35.18
2017-05-27T12:14:59.657Z,35.15
2017-05-27T12:17:29.289Z,35.06
2017-05-27T12:19:56.169Z,35.25
2017-05-27T12:22:23.240Z,35.27
2017-05-27T12:24:49.814Z,35.10
2017-05-27T12:27:16.730Z,34.91
2017-05-27T12:29:43.562Z,35.62
2017-05-27T12:32:09.972Z,35.64
2017-05-27T12:34:36.768Z,36.04
2017-05-27T12:37:03.436Z,35.12
2017-05-27T12:39:30.570Z,35.87
2017-05-27T12:41:57.316Z,35.86
2017-05-27T12:44:24.259Z,35.78
2017-05-27T12:46:51.004Z,36.12
2017-05-27T12:49:17.913Z,36.42
2017-05-27T12:51:44.485Z,35.83
2017-05-27T12:54:11.180Z,36.17
2017-05-27T12:56:37.925Z,35.76
2017-05-27T12:59:04.774Z,36.12
2017-05-27T13:01:31.525Z,36.22
2017-05-27T13:03:58.097Z,36.21
2017-05-27T13:06:24.978Z,35.86
2017-05-27T13:08:51.814Z,35.97
2017-05-27T13:11:18.444Z,36.39
2017-05-27T13:13:45.318Z,36.45
2017-05-27T13:16:12.006Z,36.27
2017-05-27T13:18:38.805Z,36.46
2017-05-27T13:21:05.600Z,36.27
2017-05-27T13:23:32.231Z,35.54
2017-05-27T13:25:59.061Z,36.55
2017-05-27T13:28:25.725Z,35.26
2017-05-27T13:30:52.446Z,36.34
2017-05-27T13:33:19.320Z,36.34
2017-05-27T13:35:46.412Z,36.76
2017-05-27T13:38:13.303Z,36.37
2017-05-27T13:40:40.109Z,36.21
2017-05-27T13:43:06.809Z,36.50
2017-05-27T13:45:33.585Z,36.51
2017-05-27T13:48:00.494Z,36.00
2017-05-27T13:50:27.155Z,36.42
2017-05-27T13:52:54.163Z,35.96
2017-05-27T13:55:21.134Z,36.57
2017-05-27T13:57:47.818Z,35.16
2017-05-27T14:00:14.552Z,34.82
2017-05-27T14:02:41.232Z,35.54
2017-05-27T14:05:07.698Z,36.79
2017-05-27T14:07:34.720Z,36.57
2017-05-27T14:10:01.780Z,36.89
2017-05-27T14:12:28.638Z,35.95
2017-05-27T14:14:55.450Z,35.53
2017-05-27T14:17:21.955Z,36.45
2017-05-27T14:19:48.877Z,36.71
2017-05-27T14:22:15.276Z,36.94
2017-05-27T14:24:41.622Z,37.04
2017-05-27T14:27:08.003Z,35.86
2017-05-27T14:29:34.469Z,36.52
2017-05-27T14:32:00.792Z,36.26
2017-05-27T14:34:27.111Z,36.38
2017-05-27T14:36:53.472Z,36.30
2017-05-27T14:39:19.864Z,36.90
2017-05-27T14:41:46.195Z,36.87
2017-05-27T14:44:12.555Z,36.68
2017-05-27T14:46:38.907Z,37.11
2017-05-27T14:49:05.347Z,36.83
2017-05-27T14:51:31.704Z,37.13
2017-05-27T14:53:58.028Z,36.58
2017-05-27T14:56:24.421Z,37.07
2017-05-27T14:58:50.961Z,37.02
2017-05-27T15:01:17.699Z,36.71
2017-05-27T15:03:44.118Z,36.78
2017-05-27T15:06:10.491Z,37.01
2017-05-27T15:08:36.865Z,36.82
2017-05-27T15:11:03.212Z,36.63
2017-05-27T15:13:29.542Z,36.72
2017-05-27T15:15:55.874Z,37.13
2017-05-27T15:18:22.206Z,37.00
2017-05-27T15:20:48.550Z,36.77
2017-05-27T15:23:14.883Z,36.71
2017-05-27T15:25:41.211Z,36.74
2017-05-27T15:28:07.569Z,36.85
2017-05-27T15:30:33.926Z,36.77
2017-05-27T15:33:00.296Z,36.61
2017-05-27T15:35:26.649Z,37.07
2017-05-27T15:37:52.980Z,36.76
2017-05-27T15:40:19.287Z,36.72
2017-05-27T15:42:45.640Z,36.90
2017-05-27T15:45:12.004Z,36.80
2017-05-27T15:47:38.383Z,37.30
2017-05-27T15:50:04.745Z,37.23
2017-05-27T15:52:31.072Z,36.75
2017-05-27T15:54:57.472Z,36.62
2017-05-27T15:57:24.220Z,36.60
2017-05-27T15:59:51.073Z,36.48
2017-05-27T16:02:17.973Z,36.04
2017-05-27T16:04:44.698Z,36.70
2017-05-27T16:07:11.567Z,36.32
2017-05-27T16:09:38.082Z,36.33
2017-05-27T16:12:04.871Z,36.62
2017-05-27T16:14:32.527Z,36.49
2017-05-27T16:16:58.923Z,36.50
2017-05-27T16:19:25.255Z,36.22
2017-05-27T16:21:51.619Z,35.95
2017-05-27T16:24:17.974Z,35.67
2017-05-27T16:26:44.401Z,36.25
2017-05-27T16:29:10.823Z,36.04
2017-05-27T16:31:37.274Z,36.00
2017-05-27T16:34:03.868Z,35.99
2017-05-27T16:36:31.269Z,35.81
2017-05-27T16:38:58.093Z,36.24
2017-05-27T16:41:24.846Z,36.06
2017-05-27T16:43:51.561Z,36.08
2017-05-27T16:46:18.421Z,36.10
2017-05-27T16:48:44.769Z,35.54
2017-05-27T16:51:11.190Z,35.40
2017-05-27T16:53:37.591Z,35.73
2017-05-27T16:56:03.929Z,35.85
2017-05-27T16:58:30.257Z,35.47
2017-05-27T17:00:56.592Z,35.13
2017-05-27T17:03:22.941Z,35.33
2017-05-27T17:05:49.323Z,35.23
2017-05-27T17:08:15.700Z,35.49
2017-05-27T17:10:42.067Z,34.97
2017-05-27T17:13:08.418Z,35.05
2017-05-27T17:15:34.971Z,35.15
2017-05-27T17:18:01.295Z,34.83
2017-05-27T17:20:27.643Z,34.44
2017-05-27T17:22:54.006Z,34.54
2017-05-27T17:25:20.376Z,34.32
2017-05-27T17:27:46.716Z,34.57
2017-05-27T17:30:13.133Z,34.20
2017-05-27T17:32:39.623Z,34.12
2017-05-27T17:35:05.973Z,33.94
2017-05-27T17:37:32.357Z,33.64
2017-05-27T17:39:58.676Z,33.26
2017-05-27T17:42:25.030Z,33.46
2017-05-27T17:44:51.764Z,32.76
2017-05-27T17:47:18.104Z,32.32
2017-05-27T17:49:44.519Z,32.54
2017-05-27T17:52:10.861Z,31.51
2017-05-27T17:54:37.213Z,31.83
2017-05-27T17:57:03.556Z,31.99
2017-05-27T17:59:29.903Z,31.37
2017-05-27T18:01:56.287Z,31.07
2017-05-27T18:04:22.641Z,30.72
2017-05-27T18:06:48.969Z,31.57
2017-05-27T18:09:15.291Z,30.85
2017-05-27T18:11:41.637Z,30.18
2017-05-27T18:14:07.966Z,30.37
2017-05-27T18:16:34.348Z,30.39
2017-05-27T18:19:00.700Z,30.60
2017-05-27T18:21:27.057Z,30.04
2017-05-27T18:23:53.375Z,30.05
2017-05-27T18:26:19.724Z,30.21
2017-05-27T18:28:46.077Z,30.04
2017-05-27T18:31:12.434Z,30.47
2017-05-27T18:33:38.775Z,30.04
2017-05-27T18:36:05.113Z,29.82
2017-05-27T18:38:31.480Z,29.84
2017-05-27T18:40:57.816Z,29.16
2017-05-27T18:43:24.172Z,29.50
2017-05-27T18:45:50.880Z,29.34
2017-05-27T18:48:17.690Z,28.93
2017-05-27T18:50:44.019Z,28.43
2017-05-27T18:53:10.382Z,28.84
2017-05-27T18:55:36.765Z,28.33
2017-05-27T18:58:03.094Z,28.79
2017-05-27T19:00:29.437Z,28.59
2017-05-27T19:02:55.779Z,28.73
2017-05-27T19:05:22.129Z,28.77
2017-05-27T19:07:48.491Z,28.04
2017-05-27T19:10:15.269Z,27.28
2017-05-27T19:12:42.109Z,27.09
2017-05-27T19:15:08.507Z,27.22
2017-05-27T19:17:34.885Z,27.20
2017-05-27T19:20:01.209Z,26.70
2017-05-27T19:22:27.551Z,26.23
2017-05-27T19:24:53.943Z,26.57
2017-05-27T19:27:20.288Z,26.09
2017-05-27T19:29:46.710Z,26.22
2017-05-27T19:32:13.075Z,25.67
2017-05-27T19:34:39.396Z,25.53
2017-05-27T19:37:05.940Z,25.85
2017-05-27T19:39:32.275Z,26.03
2017-05-27T19:41:58.760Z,27.02
2017-05-27T19:44:25.217Z,25.90
2017-05-27T19:46:51.550Z,26.11
2017-05-27T19:49:17.971Z,26.07
2017-05-27T19:51:44.303Z,25.75
2017-05-27T19:54:10.631Z,25.32
2017-05-27T19:56:37.491Z,25.77
2017-05-27T19:59:03.830Z,25.12
2017-05-27T20:01:30.331Z,25.05
2017-05-27T20:03:56.756Z,25.01
2017-05-27T20:06:23.453Z,25.05
2017-05-27T20:08:49.865Z,24.31
2017-05-27T20:11:16.489Z,24.79
2017-05-27T20:13:43.049Z,24.37
2017-05-27T20:16:09.466Z,24.36
2017-05-27T20:18:36.238Z,24.44
2017-05-27T20:21:03.428Z,24.13
2017-05-27T20:23:29.810Z,24.02
2017-05-27T20:25:56.128Z,23.94
2017-05-27T20:28:22.706Z,23.56
2017-05-27T20:30:49.042Z,23.84
2017-05-27T20:33:16.096Z,23.84
2017-05-27T20:35:42.914Z,24.01
2017-05-27T20:38:09.301Z,23.74
2017-05-27T20:40:36.304Z,23.43
2017-05-27T20:43:02.893Z,23.66
2017-05-27T20:45:29.665Z,23.76
2017-05-27T20:47:57.027Z,23.96
2017-05-27T20:50:24.197Z,23.34
2017-05-27T20:52:50.782Z,23.35
2017-05-27T20:55:23.231Z,23.47
2017-05-27T20:57:49.938Z,23.26
2017-05-27T21:00:17.817Z,23.04
2017-05-27T21:02:44.614Z,23.19
2017-05-27T21:05:11.845Z,23.22
2017-05-27T21:07:38.716Z,23.23
2017-05-27T21:10:09.191Z,24.02
2017-05-27T21:12:36.978Z,24.33
2017-05-27T21:15:03.963Z,24.48
2017-05-27T21:17:36.051Z,25.16
2017-05-27T21:20:03.132Z,24.76
2017-05-27T21:22:31.933Z,24.48
2017-05-27T21:24:58.419Z,24.98
2017-05-27T21:27:24.797Z,25.50
2017-05-27T21:29:51.185Z,25.38
2017-05-27T21:32:17.616Z,25.47
2017-05-27T21:34:44.045Z,24.93
2017-05-27T21:37:10.412Z,25.18
2017-05-27T21:39:36.747Z,25.20
2017-05-27T21:42:03.113Z,24.99
2017-05-27T21:44:31.937Z,25.61
2017-05-27T21:46:58.444Z,25.22
2017-05-27T21:49:25.006Z,25.13
2017-05-27T21:51:52.547Z,24.83
2017-05-27T21:54:18.950Z,24.23
2017-05-27T21:56:45.302Z,24.26
2017-05-27T21:59:12.026Z,24.74
2017-05-27T22:01:38.454Z,24.52
2017-05-27T22:04:04.850Z,24.43
2017-05-27T22:06:31.206Z,24.63
2017-05-27T22:08:58.031Z,24.85
2017-05-27T22:11:24.369Z,24.72
2017-05-27T22:13:50.713Z,24.56
2017-05-27T22:16:17.048Z,24.69
2017-05-27T22:18:43.397Z,24.65
2017-05-27T22:21:14.711Z,24.49
2017-05-27T22:23:44.694Z,23.88
2017-05-27T22:26:11.313Z,23.89
2017-05-27T22:28:37.677Z,24.31
2017-05-27T22:31:04.048Z,24.25
2017-05-27T22:33:30.395Z,24.34
2017-05-27T22:35:57.110Z,24.25
2017-05-27T22:38:23.451Z,24.05
2017-05-27T22:40:49.826Z,24.14
2017-05-27T22:43:16.190Z,23.98
2017-05-27T22:45:42.523Z,23.69
2017-05-27T22:48:08.862Z,23.58
2017-05-27T22:50:35.182Z,23.65
2017-05-27T22:53:01.569Z,23.62
2017-05-27T22:55:27.927Z,23.27
2017-05-27T22:57:54.290Z,23.79
2017-05-27T23:00:20.621Z,23.93
2017-05-27T23:02:46.979Z,23.70
2017-05-27T23:05:13.334Z,23.32
2017-05-27T23:07:39.674Z,23.31
2017-05-27T23:10:06.028Z,22.96
2017-05-27T23:12:32.387Z,23.00
2017-05-27T23:14:58.755Z,23.19
2017-05-27T23:17:25.109Z,23.17
2017-05-27T23:19:51.419Z,23.34
2017-05-27T23:22:17.762Z,23.68
2017-05-27T23:24:44.172Z,23.56
2017-05-27T23:27:10.523Z,23.81
2017-05-27T23:29:36.842Z,23.31
2017-05-27T23:32:03.180Z,24.14
2017-05-27T23:34:29.521Z,23.61
2017-05-27T23:36:55.882Z,23.43
2017-05-27T23:39:22.239Z,23.02
2017-05-27T23:41:48.613Z,23.27
2017-05-27T23:44:14.978Z,23.43
2017-05-27T23:46:41.330Z,23.43
2017-05-27T23:49:07.639Z,23.88
2017-05-27T23:51:34.007Z,24.11
2017-05-27T23:54:00.334Z,23.59
2017-05-27T23:56:26.666Z,23.14
2017-05-27T23:58:53.018Z,22.91
